<?xml version="1.0" encoding="UTF-8" standalone="no" ?>
<gpx xmlns="http://www.topografix.com/GPX/1/1" xmlns:xsi="http://www.w3.org/2001/XMLSchema-instance" xsi:schemaLocation="http://www.topografix.com/GPX/1/1 http://www.topografix.com/GPX/1/1/gpx.xsd" version="1.1" creator="VisuGPX - https://www.visugpx.com">
  <metadata>
    <name>Nîmes et son histoire</name>
    <desc><![CDATA[
visorando]]></desc>
  </metadata>
  <trk>
    <name><![CDATA[Nîmes et son histoire]]></name>
    <desc><![CDATA[visorando]]></desc>
    <extensions>
      <line xmlns="http://www.topografix.com/GPX/gpx_style/0/2">
        <color>0000FF</color>
        <width>4</width>
      </line>
    </extensions>
    <trkseg>
      <trkpt lat="43.8326" lon="4.36602">
        <ele>38.82903</ele>
        <time>2017-03-17T09:12:28.000Z</time>
      </trkpt>
      <trkpt lat="43.83288" lon="4.36563">
        <ele>38.93553</ele>
        <time>2017-03-17T09:14:49.000Z</time>
      </trkpt>
      <trkpt lat="43.83308" lon="4.36527">
        <ele>39.48711</ele>
        <time>2017-03-17T09:15:17.000Z</time>
      </trkpt>
      <trkpt lat="43.83325" lon="4.36495">
        <ele>39.86421</ele>
        <time>2017-03-17T09:15:49.000Z</time>
      </trkpt>
      <trkpt lat="43.83344" lon="4.36468">
        <ele>40.35223</ele>
        <time>2017-03-17T09:16:09.000Z</time>
      </trkpt>
      <trkpt lat="43.83361" lon="4.36437">
        <ele>40.74376</ele>
        <time>2017-03-17T09:16:36.000Z</time>
      </trkpt>
      <trkpt lat="43.83382" lon="4.36411">
        <ele>41.34669</ele>
        <time>2017-03-17T09:17:00.000Z</time>
      </trkpt>
      <trkpt lat="43.83402" lon="4.3638">
        <ele>41.67845</ele>
        <time>2017-03-17T09:17:20.000Z</time>
      </trkpt>
      <trkpt lat="43.83423" lon="4.36355">
        <ele>41.95919</ele>
        <time>2017-03-17T09:17:46.000Z</time>
      </trkpt>
      <trkpt lat="43.8345" lon="4.36321">
        <ele>42.71509</ele>
        <time>2017-03-17T09:18:32.000Z</time>
      </trkpt>
      <trkpt lat="43.83481" lon="4.36321">
        <ele>42.51188</ele>
        <time>2017-03-17T09:19:02.000Z</time>
      </trkpt>
      <trkpt lat="43.8351" lon="4.36311">
        <ele>43.60958</ele>
        <time>2017-03-17T09:19:32.000Z</time>
      </trkpt>
      <trkpt lat="43.83551" lon="4.36305">
        <ele>43.10664</ele>
        <time>2017-03-17T09:20:03.000Z</time>
      </trkpt>
      <trkpt lat="43.83564" lon="4.36322">
        <ele>42.93871</ele>
      </trkpt>
      <trkpt lat="43.83569" lon="4.36281">
        <ele>43.25552</ele>
        <time>2017-03-17T09:24:17.000Z</time>
      </trkpt>
      <trkpt lat="43.83582" lon="4.36242">
        <ele>43.23083</ele>
        <time>2017-03-17T09:24:28.000Z</time>
      </trkpt>
      <trkpt lat="43.83605" lon="4.36205">
        <ele>43.38428</ele>
        <time>2017-03-17T09:26:15.000Z</time>
      </trkpt>
      <trkpt lat="43.83628" lon="4.36168">
        <ele>43.93315</ele>
        <time>2017-03-17T09:27:48.000Z</time>
      </trkpt>
      <trkpt lat="43.83641" lon="4.36107">
        <ele>45.01147</ele>
        <time>2017-03-17T09:29:09.000Z</time>
      </trkpt>
      <trkpt lat="43.83642" lon="4.36068">
        <ele>44.97558</ele>
        <time>2017-03-17T09:29:38.000Z</time>
      </trkpt>
      <trkpt lat="43.83648" lon="4.36018">
        <ele>45.90539</ele>
        <time>2017-03-17T09:33:27.000Z</time>
      </trkpt>
      <trkpt lat="43.83684" lon="4.35995">
        <ele>45.8225</ele>
        <time>2017-03-17T09:37:35.000Z</time>
      </trkpt>
      <trkpt lat="43.83742" lon="4.36198">
        <ele>43.93155</ele>
        <time>2017-03-17T09:42:37.677Z</time>
      </trkpt>
      <trkpt lat="43.83792" lon="4.36168">
        <ele>44.07998</ele>
        <time>2017-03-17T09:44:23.000Z</time>
      </trkpt>
      <trkpt lat="43.83772" lon="4.36112">
        <ele>44.7182</ele>
        <time>2017-03-17T09:45:55.000Z</time>
      </trkpt>
      <trkpt lat="43.83757" lon="4.36084">
        <ele>44.76118</ele>
        <time>2017-03-17T09:46:39.024Z</time>
      </trkpt>
      <trkpt lat="43.83782" lon="4.36067">
        <ele>45.21347</ele>
        <time>2017-03-17T09:47:28.000Z</time>
      </trkpt>
      <trkpt lat="43.83794" lon="4.36068">
        <ele>45.19304</ele>
        <time>2017-03-17T09:47:43.962Z</time>
      </trkpt>
      <trkpt lat="43.83813" lon="4.3605">
        <ele>45.56477</ele>
        <time>2017-03-17T09:48:14.000Z</time>
      </trkpt>
      <trkpt lat="43.83806" lon="4.36018">
        <ele>45.90898</ele>
        <time>2017-03-17T09:49:12.000Z</time>
      </trkpt>
      <trkpt lat="43.83823" lon="4.35995">
        <ele>46.27853</ele>
        <time>2017-03-17T09:50:33.000Z</time>
      </trkpt>
      <trkpt lat="43.83836" lon="4.35993">
        <ele>46.31765</ele>
        <time>2017-03-17T09:51:48.000Z</time>
      </trkpt>
      <trkpt lat="43.83856" lon="4.36055">
        <ele>45.53374</ele>
        <time>2017-03-17T09:53:28.000Z</time>
      </trkpt>
      <trkpt lat="43.83876" lon="4.36119">
        <ele>44.496</ele>
        <time>2017-03-17T09:55:50.000Z</time>
      </trkpt>
      <trkpt lat="43.83873" lon="4.36161">
        <ele>44.10714</ele>
        <time>2017-03-17T09:56:29.000Z</time>
      </trkpt>
      <trkpt lat="43.83861" lon="4.36216">
        <ele>43.5319</ele>
        <time>2017-03-17T09:56:51.320Z</time>
      </trkpt>
      <trkpt lat="43.83852" lon="4.36264">
        <ele>43.4053</ele>
        <time>2017-03-17T09:57:10.000Z</time>
      </trkpt>
      <trkpt lat="43.83852" lon="4.36284">
        <ele>43.45533</ele>
        <time>2017-03-17T09:59:17.000Z</time>
      </trkpt>
      <trkpt lat="43.83865" lon="4.3629">
        <ele>43.61861</ele>
        <time>2017-03-17T10:00:37.212Z</time>
      </trkpt>
      <trkpt lat="43.83885" lon="4.36292">
        <ele>44.07451</ele>
        <time>2017-03-17T10:02:32.000Z</time>
      </trkpt>
      <trkpt lat="43.83865" lon="4.36291">
        <ele>43.6323</ele>
        <time>2017-03-17T10:02:46.856Z</time>
      </trkpt>
      <trkpt lat="43.83865" lon="4.36319">
        <ele>43.90925</ele>
        <time>2017-03-17T10:03:02.458Z</time>
      </trkpt>
      <trkpt lat="43.83907" lon="4.36336">
        <ele>44.82058</ele>
        <time>2017-03-17T10:03:36.000Z</time>
      </trkpt>
      <trkpt lat="43.83938" lon="4.36344">
        <ele>45.16621</ele>
        <time>2017-03-17T10:04:20.871Z</time>
      </trkpt>
      <trkpt lat="43.83933" lon="4.36389">
        <ele>45.6657</ele>
        <time>2017-03-17T10:05:08.000Z</time>
      </trkpt>
      <trkpt lat="43.83961" lon="4.36368">
        <ele>45.78383</ele>
        <time>2017-03-17T10:08:41.000Z</time>
      </trkpt>
      <trkpt lat="43.8398" lon="4.36346">
        <ele>45.93839</ele>
        <time>2017-03-17T10:09:47.000Z</time>
      </trkpt>
      <trkpt lat="43.83995" lon="4.36303">
        <ele>46.15577</ele>
        <time>2017-03-17T10:10:12.000Z</time>
      </trkpt>
      <trkpt lat="43.84006" lon="4.36267">
        <ele>45.85928</ele>
        <time>2017-03-17T10:10:54.000Z</time>
      </trkpt>
      <trkpt lat="43.84018" lon="4.36227">
        <ele>45.36743</ele>
        <time>2017-03-17T10:11:22.000Z</time>
      </trkpt>
      <trkpt lat="43.84031" lon="4.36178">
        <ele>45.70517</ele>
        <time>2017-03-17T10:11:57.000Z</time>
      </trkpt>
      <trkpt lat="43.8404" lon="4.36116">
        <ele>46.09589</ele>
        <time>2017-03-17T10:13:08.434Z</time>
      </trkpt>
      <trkpt lat="43.84039" lon="4.35991">
        <ele>47.16928</ele>
        <time>2017-03-17T10:15:28.000Z</time>
      </trkpt>
      <trkpt lat="43.84033" lon="4.35889">
        <ele>47.55529</ele>
        <time>2017-03-17T10:17:00.000Z</time>
      </trkpt>
      <trkpt lat="43.8398" lon="4.35889">
        <ele>47.6493</ele>
        <time>2017-03-17T10:18:07.000Z</time>
      </trkpt>
      <trkpt lat="43.83951" lon="4.35892">
        <ele>47.16369</ele>
        <time>2017-03-17T10:18:50.944Z</time>
      </trkpt>
      <trkpt lat="43.83939" lon="4.35815">
        <ele>47.54475</ele>
        <time>2017-03-17T10:20:18.876Z</time>
      </trkpt>
      <trkpt lat="43.83885" lon="4.35831">
        <ele>47.26896</ele>
        <time>2017-03-17T10:21:44.000Z</time>
      </trkpt>
      <trkpt lat="43.83848" lon="4.35837">
        <ele>47.19499</ele>
        <time>2017-03-17T10:22:13.000Z</time>
      </trkpt>
      <trkpt lat="43.83834" lon="4.35812">
        <ele>47.45904</ele>
        <time>2017-03-17T10:23:48.000Z</time>
      </trkpt>
      <trkpt lat="43.83823" lon="4.35765">
        <ele>47.72737</ele>
        <time>2017-03-17T10:24:40.000Z</time>
      </trkpt>
      <trkpt lat="43.83818" lon="4.35737">
        <ele>47.87181</ele>
        <time>2017-03-17T10:27:24.000Z</time>
      </trkpt>
      <trkpt lat="43.83808" lon="4.35693">
        <ele>48.32874</ele>
        <time>2017-03-17T10:27:47.000Z</time>
      </trkpt>
      <trkpt lat="43.838" lon="4.35658">
        <ele>48.6902</ele>
        <time>2017-03-17T10:28:40.000Z</time>
      </trkpt>
      <trkpt lat="43.83796" lon="4.35624">
        <ele>48.70882</ele>
        <time>2017-03-17T10:29:49.000Z</time>
      </trkpt>
      <trkpt lat="43.83791" lon="4.35587">
        <ele>48.923</ele>
        <time>2017-03-17T10:31:08.000Z</time>
      </trkpt>
      <trkpt lat="43.83833" lon="4.35574">
        <ele>48.44887</ele>
      </trkpt>
      <trkpt lat="43.83838" lon="4.35612">
        <ele>48.06336</ele>
        <time>2017-03-17T10:32:48.000Z</time>
      </trkpt>
      <trkpt lat="43.83832" lon="4.35573">
        <ele>48.51461</ele>
      </trkpt>
      <trkpt lat="43.83822" lon="4.35491">
        <ele>50.54599</ele>
      </trkpt>
      <trkpt lat="43.83816" lon="4.35452">
        <ele>50.53278</ele>
        <time>2017-03-17T10:35:03.000Z</time>
      </trkpt>
      <trkpt lat="43.83824" lon="4.35419">
        <ele>50.63434</ele>
        <time>2017-03-17T10:35:34.000Z</time>
      </trkpt>
      <trkpt lat="43.83837" lon="4.35382">
        <ele>50.5021</ele>
        <time>2017-03-17T10:36:22.000Z</time>
      </trkpt>
      <trkpt lat="43.83852" lon="4.35355">
        <ele>50.55727</ele>
      </trkpt>
      <trkpt lat="43.83873" lon="4.3548">
        <ele>50.65712</ele>
      </trkpt>
      <trkpt lat="43.83852" lon="4.35353">
        <ele>50.52833</ele>
        <time>2017-03-17T10:39:02.000Z</time>
      </trkpt>
      <trkpt lat="43.83869" lon="4.35289">
        <ele>51.31621</ele>
        <time>2017-03-17T10:39:42.000Z</time>
      </trkpt>
      <trkpt lat="43.83887" lon="4.35256">
        <ele>50.54651</ele>
        <time>2017-03-17T10:40:53.000Z</time>
      </trkpt>
      <trkpt lat="43.83908" lon="4.3525">
        <ele>50.09759</ele>
        <time>2017-03-17T10:41:21.000Z</time>
      </trkpt>
      <trkpt lat="43.83901" lon="4.35205">
        <ele>52.01718</ele>
        <time>2017-03-17T10:42:12.000Z</time>
      </trkpt>
      <trkpt lat="43.83939" lon="4.35115">
        <ele>53.04135</ele>
        <time>2017-03-17T10:42:47.000Z</time>
      </trkpt>
      <trkpt lat="43.83977" lon="4.35052">
        <ele>54.56826</ele>
        <time>2017-03-17T10:43:19.000Z</time>
      </trkpt>
      <trkpt lat="43.83984" lon="4.34995">
        <ele>52.48605</ele>
        <time>2017-03-17T10:46:37.000Z</time>
      </trkpt>
      <trkpt lat="43.8403" lon="4.34985">
        <ele>53.29922</ele>
        <time>2017-03-17T10:52:13.000Z</time>
      </trkpt>
      <trkpt lat="43.84038" lon="4.34967">
        <ele>54.18736</ele>
        <time>2017-03-17T10:52:35.000Z</time>
      </trkpt>
      <trkpt lat="43.84059" lon="4.35007">
        <ele>56.9602</ele>
        <time>2017-03-17T10:53:12.000Z</time>
      </trkpt>
      <trkpt lat="43.84039" lon="4.3502">
        <ele>64.55171</ele>
        <time>2017-03-17T10:54:14.000Z</time>
      </trkpt>
      <trkpt lat="43.84012" lon="4.35026">
        <ele>65.08989</ele>
        <time>2017-03-17T10:54:54.000Z</time>
      </trkpt>
      <trkpt lat="43.8404" lon="4.35026">
        <ele>67.47248</ele>
        <time>2017-03-17T10:55:52.000Z</time>
      </trkpt>
      <trkpt lat="43.84066" lon="4.35037">
        <ele>68.69886</ele>
        <time>2017-03-17T10:56:15.000Z</time>
      </trkpt>
      <trkpt lat="43.84085" lon="4.35039">
        <ele>67.52983</ele>
        <time>2017-03-17T10:57:16.000Z</time>
      </trkpt>
      <trkpt lat="43.84097" lon="4.35032">
        <ele>69.37837</ele>
      </trkpt>
      <trkpt lat="43.841" lon="4.35038">
        <ele>71.29761</ele>
      </trkpt>
      <trkpt lat="43.84116" lon="4.35019">
        <ele>71.89391</ele>
      </trkpt>
      <trkpt lat="43.84118" lon="4.34995">
        <ele>70.3671</ele>
      </trkpt>
      <trkpt lat="43.84113" lon="4.34957">
        <ele>71.99117</ele>
        <time>2017-03-17T10:57:58.000Z</time>
      </trkpt>
      <trkpt lat="43.84131" lon="4.34995">
        <ele>77.60367</ele>
      </trkpt>
      <trkpt lat="43.84138" lon="4.34993">
        <ele>79.83984</ele>
      </trkpt>
      <trkpt lat="43.84139" lon="4.34972">
        <ele>81.75607</ele>
      </trkpt>
      <trkpt lat="43.84144" lon="4.3496">
        <ele>84.65339</ele>
      </trkpt>
      <trkpt lat="43.84153" lon="4.35001">
        <ele>83.95683</ele>
        <time>2017-03-17T10:59:17.000Z</time>
      </trkpt>
      <trkpt lat="43.84171" lon="4.3507">
        <ele>85.48945</ele>
        <time>2017-03-17T11:00:04.000Z</time>
      </trkpt>
      <trkpt lat="43.84202" lon="4.35061">
        <ele>92.69883</ele>
        <time>2017-03-17T11:00:44.000Z</time>
      </trkpt>
      <trkpt lat="43.84229" lon="4.35035">
        <ele>94.77364</ele>
        <time>2017-03-17T11:01:20.000Z</time>
      </trkpt>
      <trkpt lat="43.84257" lon="4.35">
        <ele>100.3023</ele>
        <time>2017-03-17T11:01:49.000Z</time>
      </trkpt>
      <trkpt lat="43.8428" lon="4.34972">
        <ele>105.996</ele>
        <time>2017-03-17T11:02:24.000Z</time>
      </trkpt>
      <trkpt lat="43.84296" lon="4.34938">
        <ele>109.49663</ele>
        <time>2017-03-17T11:02:48.000Z</time>
      </trkpt>
      <trkpt lat="43.84269" lon="4.34919">
        <ele>107.06876</ele>
        <time>2017-03-17T11:04:59.000Z</time>
      </trkpt>
      <trkpt lat="43.84255" lon="4.34922">
        <ele>105.74261</ele>
        <time>2017-03-17T11:05:48.000Z</time>
      </trkpt>
      <trkpt lat="43.84212" lon="4.34906">
        <ele>100.41058</ele>
        <time>2017-03-17T11:06:03.000Z</time>
      </trkpt>
      <trkpt lat="43.84181" lon="4.3489">
        <ele>96.51624</ele>
        <time>2017-03-17T11:06:34.000Z</time>
      </trkpt>
      <trkpt lat="43.84154" lon="4.34903">
        <ele>92.58137</ele>
      </trkpt>
      <trkpt lat="43.84146" lon="4.34908">
        <ele>90.07942</ele>
      </trkpt>
      <trkpt lat="43.84153" lon="4.34903">
        <ele>92.39143</ele>
        <time>2017-03-17T11:08:20.000Z</time>
      </trkpt>
      <trkpt lat="43.84147" lon="4.34864">
        <ele>90.59137</ele>
      </trkpt>
      <trkpt lat="43.84138" lon="4.34847">
        <ele>88.43814</ele>
      </trkpt>
      <trkpt lat="43.84118" lon="4.34839">
        <ele>84.89846</ele>
      </trkpt>
      <trkpt lat="43.84102" lon="4.34849">
        <ele>80.83673</ele>
        <time>2017-03-17T11:09:34.000Z</time>
      </trkpt>
      <trkpt lat="43.84077" lon="4.34846">
        <ele>73.69261</ele>
        <time>2017-03-17T11:10:24.000Z</time>
      </trkpt>
      <trkpt lat="43.84047" lon="4.34839">
        <ele>67.18295</ele>
        <time>2017-03-17T11:10:52.000Z</time>
      </trkpt>
      <trkpt lat="43.84023" lon="4.34845">
        <ele>61.43897</ele>
      </trkpt>
      <trkpt lat="43.84046" lon="4.34863">
        <ele>57.54826</ele>
      </trkpt>
      <trkpt lat="43.84042" lon="4.34869">
        <ele>53.62787</ele>
        <time>2017-03-17T11:13:27.000Z</time>
      </trkpt>
      <trkpt lat="43.84027" lon="4.34864">
        <ele>54.7825</ele>
      </trkpt>
      <trkpt lat="43.83994" lon="4.34884">
        <ele>54.9743</ele>
        <time>2017-03-17T11:15:34.000Z</time>
      </trkpt>
      <trkpt lat="43.83976" lon="4.34924">
        <ele>53.4958</ele>
        <time>2017-03-17T11:16:09.000Z</time>
      </trkpt>
      <trkpt lat="43.83964" lon="4.34939">
        <ele>53.05717</ele>
        <time>2017-03-17T11:16:55.000Z</time>
      </trkpt>
      <trkpt lat="43.83942" lon="4.34947">
        <ele>52.65881</ele>
      </trkpt>
      <trkpt lat="43.83941" lon="4.34966">
        <ele>53.26858</ele>
        <time>2017-03-17T11:17:14.000Z</time>
      </trkpt>
      <trkpt lat="43.83904" lon="4.34978">
        <ele>52.93858</ele>
        <time>2017-03-17T11:17:40.000Z</time>
      </trkpt>
      <trkpt lat="43.83876" lon="4.34987">
        <ele>52.48091</ele>
        <time>2017-03-17T11:18:10.000Z</time>
      </trkpt>
      <trkpt lat="43.83849" lon="4.34996">
        <ele>51.40117</ele>
        <time>2017-03-17T11:18:43.000Z</time>
      </trkpt>
      <trkpt lat="43.83821" lon="4.35004">
        <ele>52.83348</ele>
        <time>2017-03-17T11:19:07.000Z</time>
      </trkpt>
      <trkpt lat="43.83794" lon="4.35014">
        <ele>52.76812</ele>
        <time>2017-03-17T11:19:35.000Z</time>
      </trkpt>
      <trkpt lat="43.83765" lon="4.35023">
        <ele>52.68575</ele>
        <time>2017-03-17T11:19:56.000Z</time>
      </trkpt>
      <trkpt lat="43.83737" lon="4.35031">
        <ele>52.4456</ele>
        <time>2017-03-17T11:20:11.000Z</time>
      </trkpt>
      <trkpt lat="43.83706" lon="4.35043">
        <ele>52.24641</ele>
        <time>2017-03-17T11:20:45.000Z</time>
      </trkpt>
      <trkpt lat="43.83679" lon="4.3505">
        <ele>52.20368</ele>
        <time>2017-03-17T11:21:03.000Z</time>
      </trkpt>
      <trkpt lat="43.83652" lon="4.35057">
        <ele>52.14948</ele>
        <time>2017-03-17T11:21:17.000Z</time>
      </trkpt>
      <trkpt lat="43.83628" lon="4.35064">
        <ele>51.8906</ele>
        <time>2017-03-17T11:22:04.000Z</time>
      </trkpt>
      <trkpt lat="43.83603" lon="4.35073">
        <ele>51.59582</ele>
        <time>2017-03-17T11:23:06.000Z</time>
      </trkpt>
      <trkpt lat="43.83576" lon="4.35078">
        <ele>51.44769</ele>
        <time>2017-03-17T11:23:25.000Z</time>
      </trkpt>
      <trkpt lat="43.83544" lon="4.35089">
        <ele>51.2171</ele>
        <time>2017-03-17T11:24:04.000Z</time>
      </trkpt>
      <trkpt lat="43.83515" lon="4.35099">
        <ele>51.03387</ele>
        <time>2017-03-17T11:24:39.000Z</time>
      </trkpt>
      <trkpt lat="43.83445" lon="4.35117">
        <ele>50.66358</ele>
        <time>2017-03-17T11:25:16.000Z</time>
      </trkpt>
      <trkpt lat="43.83464" lon="4.35173">
        <ele>50.53363</ele>
        <time>2017-03-17T11:25:49.000Z</time>
      </trkpt>
      <trkpt lat="43.83479" lon="4.35208">
        <ele>50.29441</ele>
        <time>2017-03-17T11:27:12.000Z</time>
      </trkpt>
      <trkpt lat="43.83495" lon="4.35242">
        <ele>50.14693</ele>
        <time>2017-03-17T11:27:33.000Z</time>
      </trkpt>
      <trkpt lat="43.83515" lon="4.35278">
        <ele>50.61579</ele>
        <time>2017-03-17T11:28:26.000Z</time>
      </trkpt>
      <trkpt lat="43.83532" lon="4.35316">
        <ele>50.54731</ele>
        <time>2017-03-17T11:29:03.000Z</time>
      </trkpt>
      <trkpt lat="43.83551" lon="4.35347">
        <ele>50.4276</ele>
        <time>2017-03-17T11:29:52.000Z</time>
      </trkpt>
      <trkpt lat="43.83566" lon="4.35382">
        <ele>50.00014</ele>
        <time>2017-03-17T11:31:30.000Z</time>
      </trkpt>
      <trkpt lat="43.83579" lon="4.35415">
        <ele>49.92036</ele>
        <time>2017-03-17T11:31:55.000Z</time>
      </trkpt>
      <trkpt lat="43.83598" lon="4.35445">
        <ele>49.89178</ele>
        <time>2017-03-17T11:32:29.000Z</time>
      </trkpt>
      <trkpt lat="43.83615" lon="4.35475">
        <ele>49.81463</ele>
        <time>2017-03-17T11:32:55.000Z</time>
      </trkpt>
      <trkpt lat="43.83632" lon="4.35516">
        <ele>49.62892</ele>
        <time>2017-03-17T11:35:24.000Z</time>
      </trkpt>
      <trkpt lat="43.83648" lon="4.35542">
        <ele>49.44456</ele>
        <time>2017-03-17T11:37:21.000Z</time>
      </trkpt>
      <trkpt lat="43.83665" lon="4.35573">
        <ele>49.33939</ele>
        <time>2017-03-17T11:38:50.000Z</time>
      </trkpt>
      <trkpt lat="43.83681" lon="4.35605">
        <ele>48.64841</ele>
        <time>2017-03-17T11:39:19.000Z</time>
      </trkpt>
      <trkpt lat="43.83686" lon="4.35645">
        <ele>47.97096</ele>
        <time>2017-03-17T11:40:16.000Z</time>
      </trkpt>
      <trkpt lat="43.83691" lon="4.35667">
        <ele>47.9059</ele>
        <time>2017-03-17T11:40:48.000Z</time>
      </trkpt>
      <trkpt lat="43.83662" lon="4.357">
        <ele>47.83354</ele>
        <time>2017-03-17T11:42:41.000Z</time>
      </trkpt>
      <trkpt lat="43.83632" lon="4.35738">
        <ele>47.57026</ele>
        <time>2017-03-17T11:43:17.000Z</time>
      </trkpt>
      <trkpt lat="43.83605" lon="4.35771">
        <ele>46.69258</ele>
        <time>2017-03-17T11:43:47.000Z</time>
      </trkpt>
      <trkpt lat="43.83588" lon="4.35792">
        <ele>46.82349</ele>
        <time>2017-03-17T11:44:24.000Z</time>
      </trkpt>
      <trkpt lat="43.83561" lon="4.35812">
        <ele>46.14941</ele>
        <time>2017-03-17T11:48:21.000Z</time>
      </trkpt>
      <trkpt lat="43.83514" lon="4.35869">
        <ele>45.10196</ele>
        <time>2017-03-17T11:48:43.000Z</time>
      </trkpt>
      <trkpt lat="43.83525" lon="4.35896">
        <ele>44.82011</ele>
        <time>2017-03-17T12:31:20.000Z</time>
      </trkpt>
      <trkpt lat="43.83533" lon="4.35919">
        <ele>44.62106</ele>
        <time>2017-03-17T12:32:16.000Z</time>
      </trkpt>
      <trkpt lat="43.8355" lon="4.35943">
        <ele>44.61443</ele>
        <time>2017-03-17T12:34:24.000Z</time>
      </trkpt>
      <trkpt lat="43.83554" lon="4.35978">
        <ele>44.63089</ele>
        <time>2017-03-17T12:34:47.000Z</time>
      </trkpt>
      <trkpt lat="43.8355" lon="4.36008">
        <ele>44.42368</ele>
        <time>2017-03-17T12:35:06.000Z</time>
      </trkpt>
      <trkpt lat="43.83526" lon="4.36049">
        <ele>44.16258</ele>
        <time>2017-03-17T12:35:32.000Z</time>
      </trkpt>
      <trkpt lat="43.83494" lon="4.36077">
        <ele>44.10257</ele>
        <time>2017-03-17T12:35:51.000Z</time>
      </trkpt>
      <trkpt lat="43.83463" lon="4.36076">
        <ele>44.18465</ele>
        <time>2017-03-17T12:37:21.000Z</time>
      </trkpt>
      <trkpt lat="43.83445" lon="4.36015">
        <ele>44.07984</ele>
        <time>2017-03-17T12:37:47.000Z</time>
      </trkpt>
      <trkpt lat="43.83461" lon="4.36074">
        <ele>44.19267</ele>
        <time>2017-03-17T12:48:37.586Z</time>
      </trkpt>
      <trkpt lat="43.83467" lon="4.36117">
        <ele>43.84278</ele>
        <time>2017-03-17T12:56:05.361Z</time>
      </trkpt>
      <trkpt lat="43.83496" lon="4.36235">
        <ele>44.23049</ele>
        <time>2017-03-17T13:17:29.000Z</time>
      </trkpt>
      <trkpt lat="43.83479" lon="4.36258">
        <ele>44.4228</ele>
        <time>2017-03-17T13:32:26.000Z</time>
      </trkpt>
      <trkpt lat="43.83459" lon="4.36285">
        <ele>40.20269</ele>
        <time>2017-03-17T13:32:50.000Z</time>
      </trkpt>
      <trkpt lat="43.83438" lon="4.36309">
        <ele>42.7548</ele>
        <time>2017-03-17T13:33:16.000Z</time>
      </trkpt>
      <trkpt lat="43.83417" lon="4.36344">
        <ele>42.0194</ele>
        <time>2017-03-17T13:33:46.000Z</time>
      </trkpt>
      <trkpt lat="43.83399" lon="4.36374">
        <ele>41.68352</ele>
        <time>2017-03-17T13:34:08.000Z</time>
      </trkpt>
      <trkpt lat="43.83379" lon="4.36402">
        <ele>41.39261</ele>
        <time>2017-03-17T13:34:31.000Z</time>
      </trkpt>
      <trkpt lat="43.83361" lon="4.36432">
        <ele>40.8292</ele>
        <time>2017-03-17T13:34:53.000Z</time>
      </trkpt>
      <trkpt lat="43.8334" lon="4.3646">
        <ele>40.40409</ele>
        <time>2017-03-17T13:35:15.000Z</time>
      </trkpt>
      <trkpt lat="43.83321" lon="4.36491">
        <ele>39.82403</ele>
        <time>2017-03-17T13:35:38.000Z</time>
      </trkpt>
      <trkpt lat="43.83305" lon="4.36525">
        <ele>39.45665</ele>
        <time>2017-03-17T13:36:07.000Z</time>
      </trkpt>
      <trkpt lat="43.83259" lon="4.36599">
        <ele>38.85095</ele>
        <time>2017-03-17T13:36:49.000Z</time>
      </trkpt>
      <trkpt lat="43.83258" lon="4.366">
        <ele>38.85885</ele>
      </trkpt>
      <trkpt lat="43.83258" lon="4.366">
        <ele>38.85563</ele>
      </trkpt>
      <trkpt lat="43.8326" lon="4.36603">
        <ele>38.81518</ele>
      </trkpt>
      <trkpt lat="43.83288" lon="4.36557">
        <ele>38.97407</ele>
      </trkpt>
      <trkpt lat="43.83294" lon="4.36548">
        <ele>39.12228</ele>
      </trkpt>
      <trkpt lat="43.83317" lon="4.36512">
        <ele>39.69754</ele>
      </trkpt>
      <trkpt lat="43.8334" lon="4.36477">
        <ele>40.18306</ele>
      </trkpt>
      <trkpt lat="43.83351" lon="4.3646">
        <ele>40.5493</ele>
      </trkpt>
      <trkpt lat="43.83364" lon="4.36438">
        <ele>40.73067</ele>
      </trkpt>
      <trkpt lat="43.8339" lon="4.36397">
        <ele>41.50932</ele>
      </trkpt>
      <trkpt lat="43.83416" lon="4.36356">
        <ele>41.87715</ele>
      </trkpt>
      <trkpt lat="43.83426" lon="4.3634">
        <ele>42.16702</ele>
      </trkpt>
      <trkpt lat="43.83446" lon="4.36306">
        <ele>42.1959</ele>
      </trkpt>
      <trkpt lat="43.83452" lon="4.36297">
        <ele>40.7363</ele>
      </trkpt>
      <trkpt lat="43.83461" lon="4.36284">
        <ele>40.44217</ele>
      </trkpt>
      <trkpt lat="43.83469" lon="4.36271">
        <ele>43.17403</ele>
      </trkpt>
      <trkpt lat="43.83479" lon="4.36256">
        <ele>44.46873</ele>
      </trkpt>
      <trkpt lat="43.83469" lon="4.36212">
        <ele>44.23004</ele>
      </trkpt>
      <trkpt lat="43.8346" lon="4.36169">
        <ele>43.90492</ele>
      </trkpt>
      <trkpt lat="43.83451" lon="4.36125">
        <ele>43.7835</ele>
      </trkpt>
      <trkpt lat="43.83453" lon="4.36121">
        <ele>43.79883</ele>
      </trkpt>
      <trkpt lat="43.83456" lon="4.3611">
        <ele>43.84727</ele>
      </trkpt>
      <trkpt lat="43.83457" lon="4.36103">
        <ele>43.89161</ele>
      </trkpt>
      <trkpt lat="43.83456" lon="4.36094">
        <ele>43.97331</ele>
      </trkpt>
      <trkpt lat="43.83455" lon="4.36086">
        <ele>44.05785</ele>
      </trkpt>
      <trkpt lat="43.83452" lon="4.36078">
        <ele>44.12677</ele>
      </trkpt>
      <trkpt lat="43.8342" lon="4.36039">
        <ele>44.31345</ele>
      </trkpt>
      <trkpt lat="43.83387" lon="4.36001">
        <ele>44.48452</ele>
      </trkpt>
      <trkpt lat="43.8339" lon="4.35991">
        <ele>44.58084</ele>
      </trkpt>
      <trkpt lat="43.83395" lon="4.35985">
        <ele>44.63169</ele>
      </trkpt>
      <trkpt lat="43.83402" lon="4.35975">
        <ele>44.6785</ele>
      </trkpt>
      <trkpt lat="43.83409" lon="4.35963">
        <ele>44.65675</ele>
      </trkpt>
      <trkpt lat="43.83414" lon="4.35953">
        <ele>44.65436</ele>
      </trkpt>
      <trkpt lat="43.83418" lon="4.35946">
        <ele>44.64326</ele>
      </trkpt>
      <trkpt lat="43.83423" lon="4.35938">
        <ele>44.61744</ele>
      </trkpt>
      <trkpt lat="43.83425" lon="4.35926">
        <ele>44.70668</ele>
      </trkpt>
      <trkpt lat="43.83427" lon="4.35913">
        <ele>44.82293</ele>
      </trkpt>
      <trkpt lat="43.83431" lon="4.35902">
        <ele>44.85982</ele>
      </trkpt>
      <trkpt lat="43.83434" lon="4.35895">
        <ele>44.89717</ele>
      </trkpt>
      <trkpt lat="43.83438" lon="4.35887">
        <ele>44.92288</ele>
      </trkpt>
      <trkpt lat="43.83441" lon="4.35881">
        <ele>44.91459</ele>
      </trkpt>
      <trkpt lat="43.83447" lon="4.35875">
        <ele>44.87464</ele>
      </trkpt>
      <trkpt lat="43.83452" lon="4.3587">
        <ele>44.88821</ele>
      </trkpt>
      <trkpt lat="43.83458" lon="4.35867">
        <ele>44.9485</ele>
      </trkpt>
      <trkpt lat="43.83462" lon="4.35865">
        <ele>45.00347</ele>
      </trkpt>
      <trkpt lat="43.83468" lon="4.35863">
        <ele>45.07598</ele>
      </trkpt>
      <trkpt lat="43.83474" lon="4.35862">
        <ele>45.10137</ele>
      </trkpt>
      <trkpt lat="43.8348" lon="4.35862">
        <ele>45.10008</ele>
      </trkpt>
      <trkpt lat="43.83488" lon="4.35863">
        <ele>45.07045</ele>
      </trkpt>
      <trkpt lat="43.83492" lon="4.35863">
        <ele>45.07495</ele>
      </trkpt>
      <trkpt lat="43.83498" lon="4.35863">
        <ele>45.12009</ele>
      </trkpt>
      <trkpt lat="43.83504" lon="4.35862">
        <ele>45.18006</ele>
      </trkpt>
      <trkpt lat="43.83509" lon="4.35859">
        <ele>45.25959</ele>
      </trkpt>
      <trkpt lat="43.83515" lon="4.35854">
        <ele>45.32241</ele>
      </trkpt>
      <trkpt lat="43.83522" lon="4.35846">
        <ele>45.36839</ele>
      </trkpt>
      <trkpt lat="43.83533" lon="4.35834">
        <ele>45.42873</ele>
      </trkpt>
      <trkpt lat="43.83557" lon="4.35806">
        <ele>46.15791</ele>
      </trkpt>
      <trkpt lat="43.83581" lon="4.35779">
        <ele>46.85409</ele>
      </trkpt>
      <trkpt lat="43.83609" lon="4.35744">
        <ele>46.8483</ele>
      </trkpt>
      <trkpt lat="43.83626" lon="4.35725">
        <ele>47.67394</ele>
      </trkpt>
      <trkpt lat="43.83629" lon="4.35722">
        <ele>47.68695</ele>
      </trkpt>
      <trkpt lat="43.83654" lon="4.35693">
        <ele>47.87757</ele>
      </trkpt>
      <trkpt lat="43.83672" lon="4.35672">
        <ele>48.00079</ele>
      </trkpt>
      <trkpt lat="43.83686" lon="4.35656">
        <ele>47.92589</ele>
      </trkpt>
      <trkpt lat="43.83698" lon="4.35642">
        <ele>48.05444</ele>
      </trkpt>
      <trkpt lat="43.83688" lon="4.35623">
        <ele>48.28632</ele>
      </trkpt>
      <trkpt lat="43.83683" lon="4.35612">
        <ele>48.51522</ele>
      </trkpt>
      <trkpt lat="43.83665" lon="4.35577">
        <ele>49.27909</ele>
      </trkpt>
      <trkpt lat="43.8365" lon="4.35549">
        <ele>49.40417</ele>
      </trkpt>
      <trkpt lat="43.83637" lon="4.35523">
        <ele>49.59935</ele>
      </trkpt>
      <trkpt lat="43.83624" lon="4.35496">
        <ele>49.71921</ele>
      </trkpt>
      <trkpt lat="43.83603" lon="4.35454">
        <ele>49.89187</ele>
      </trkpt>
      <trkpt lat="43.83583" lon="4.35412">
        <ele>49.92612</ele>
      </trkpt>
      <trkpt lat="43.83581" lon="4.35409">
        <ele>49.9309</ele>
      </trkpt>
      <trkpt lat="43.83566" lon="4.3538">
        <ele>50.00493</ele>
      </trkpt>
      <trkpt lat="43.83551" lon="4.35351">
        <ele>50.36293</ele>
      </trkpt>
      <trkpt lat="43.83537" lon="4.35323">
        <ele>50.59265</ele>
      </trkpt>
      <trkpt lat="43.83519" lon="4.35286">
        <ele>50.59015</ele>
      </trkpt>
      <trkpt lat="43.83501" lon="4.3525">
        <ele>50.24751</ele>
      </trkpt>
      <trkpt lat="43.8348" lon="4.35208">
        <ele>50.30365</ele>
      </trkpt>
      <trkpt lat="43.83466" lon="4.3518">
        <ele>50.51468</ele>
      </trkpt>
      <trkpt lat="43.83452" lon="4.35152">
        <ele>50.42357</ele>
      </trkpt>
      <trkpt lat="43.83449" lon="4.35142">
        <ele>50.45824</ele>
      </trkpt>
      <trkpt lat="43.83447" lon="4.35131">
        <ele>50.54422</ele>
      </trkpt>
      <trkpt lat="43.83441" lon="4.35091">
        <ele>50.74335</ele>
      </trkpt>
      <trkpt lat="43.8344" lon="4.35081">
        <ele>50.75804</ele>
      </trkpt>
      <trkpt lat="43.83441" lon="4.35073">
        <ele>50.75485</ele>
      </trkpt>
      <trkpt lat="43.83442" lon="4.35062">
        <ele>50.70911</ele>
      </trkpt>
      <trkpt lat="43.8345" lon="4.35002">
        <ele>50.50505</ele>
      </trkpt>
      <trkpt lat="43.83456" lon="4.34962">
        <ele>50.8531</ele>
      </trkpt>
      <trkpt lat="43.83462" lon="4.34923">
        <ele>50.59267</ele>
      </trkpt>
      <trkpt lat="43.83468" lon="4.34885">
        <ele>50.64012</ele>
      </trkpt>
      <trkpt lat="43.83474" lon="4.34847">
        <ele>51.59104</ele>
      </trkpt>
      <trkpt lat="43.83475" lon="4.34838">
        <ele>51.69877</ele>
      </trkpt>
      <trkpt lat="43.83475" lon="4.34827">
        <ele>51.74553</ele>
      </trkpt>
      <trkpt lat="43.83474" lon="4.34819">
        <ele>51.69661</ele>
      </trkpt>
      <trkpt lat="43.83473" lon="4.34811">
        <ele>51.57512</ele>
      </trkpt>
      <trkpt lat="43.83471" lon="4.34801">
        <ele>51.46288</ele>
      </trkpt>
      <trkpt lat="43.83469" lon="4.34788">
        <ele>51.4472</ele>
      </trkpt>
      <trkpt lat="43.83468" lon="4.34778">
        <ele>51.52796</ele>
      </trkpt>
      <trkpt lat="43.8346" lon="4.34757">
        <ele>52.13402</ele>
      </trkpt>
      <trkpt lat="43.83451" lon="4.34738">
        <ele>52.83678</ele>
      </trkpt>
      <trkpt lat="43.83437" lon="4.34709">
        <ele>53.43296</ele>
      </trkpt>
      <trkpt lat="43.83422" lon="4.34681">
        <ele>53.91307</ele>
      </trkpt>
      <trkpt lat="43.83409" lon="4.34651">
        <ele>55.20515</ele>
      </trkpt>
      <trkpt lat="43.834" lon="4.34635">
        <ele>56.31054</ele>
      </trkpt>
      <trkpt lat="43.83395" lon="4.34624">
        <ele>57.09886</ele>
      </trkpt>
      <trkpt lat="43.83391" lon="4.34616">
        <ele>57.76686</ele>
      </trkpt>
      <trkpt lat="43.83386" lon="4.34603">
        <ele>58.95107</ele>
      </trkpt>
      <trkpt lat="43.83372" lon="4.34575">
        <ele>60.98073</ele>
      </trkpt>
      <trkpt lat="43.83368" lon="4.34563">
        <ele>62.11834</ele>
      </trkpt>
      <trkpt lat="43.83344" lon="4.34525">
        <ele>66.01537</ele>
      </trkpt>
      <trkpt lat="43.83339" lon="4.34514">
        <ele>66.92668</ele>
      </trkpt>
      <trkpt lat="43.83323" lon="4.34476">
        <ele>69.7828</ele>
      </trkpt>
      <trkpt lat="43.83314" lon="4.34443">
        <ele>72.29447</ele>
      </trkpt>
      <trkpt lat="43.8331" lon="4.34436">
        <ele>72.87506</ele>
      </trkpt>
      <trkpt lat="43.83303" lon="4.34407">
        <ele>75.28325</ele>
      </trkpt>
      <trkpt lat="43.8331" lon="4.34401">
        <ele>75.51922</ele>
      </trkpt>
      <trkpt lat="43.83329" lon="4.34379">
        <ele>76.10948</ele>
      </trkpt>
      <trkpt lat="43.83334" lon="4.34371">
        <ele>76.51936</ele>
      </trkpt>
      <trkpt lat="43.8334" lon="4.34367">
        <ele>76.47721</ele>
      </trkpt>
      <trkpt lat="43.83348" lon="4.34361">
        <ele>76.33588</ele>
      </trkpt>
      <trkpt lat="43.83361" lon="4.34349">
        <ele>77.06724</ele>
      </trkpt>
      <trkpt lat="43.83368" lon="4.34357">
        <ele>76.73216</ele>
      </trkpt>
      <trkpt lat="43.83386" lon="4.34378">
        <ele>76.52046</ele>
      </trkpt>
      <trkpt lat="43.83404" lon="4.344">
        <ele>75.99098</ele>
      </trkpt>
      <trkpt lat="43.83412" lon="4.34412">
        <ele>76.07025</ele>
      </trkpt>
      <trkpt lat="43.83431" lon="4.34443">
        <ele>75.97595</ele>
      </trkpt>
    </trkseg>
  </trk>
</gpx>